createdAt,value
2018-12-20T00:00:19.785Z,72.13
2018-12-20T00:02:48.316Z,87.87
2018-12-20T00:05:16.507Z,96.67
2018-12-20T00:07:44.801Z,93.33
2018-12-20T00:10:12.980Z,80.13
2018-12-20T00:12:41.524Z,69.53
2018-12-20T00:15:09.982Z,76.30
2018-12-20T00:17:43.791Z,89.83
2018-12-20T00:20:11.923Z,69.17
2018-12-20T00:22:40.182Z,71.40
2018-12-20T00:25:09.654Z,69.70
2018-12-20T00:27:37.878Z,74.33
2018-12-20T00:30:06.219Z,83.27
2018-12-20T00:32:34.501Z,86.13
2018-12-20T00:35:02.943Z,75.87
2018-12-20T00:37:31.223Z,69.70
2018-12-20T00:40:06.249Z,63.40
2018-12-20T00:42:29.793Z,63.50
2018-12-20T00:44:58.731Z,51.37
2018-12-20T00:47:27.054Z,48.40
2018-12-20T00:49:55.749Z,51.07
2018-12-20T00:52:23.967Z,53.23
2018-12-20T00:54:52.136Z,59.97
2018-12-20T00:57:20.359Z,52.57
2018-12-20T00:59:48.717Z,71.10
2018-12-20T01:02:16.990Z,89.13
2018-12-20T01:04:45.214Z,88.73
2018-12-20T01:07:13.474Z,85.57
2018-12-20T01:09:41.693Z,89.30
2018-12-20T01:12:09.948Z,82.30
2018-12-20T01:14:45.174Z,80.17
2018-12-20T01:17:08.551Z,78.00
2018-12-20T01:19:36.757Z,90.27
2018-12-20T01:22:04.932Z,83.93
2018-12-20T01:24:33.226Z,84.47
2018-12-20T01:27:01.443Z,89.83
2018-12-20T01:29:29.651Z,101.63
2018-12-20T01:31:57.813Z,86.37
2018-12-20T01:34:26.058Z,84.73
2018-12-20T01:36:54.564Z,106.87
2018-12-20T01:39:23.072Z,71.10
2018-12-20T01:41:51.391Z,64.63
2018-12-20T01:44:19.641Z,59.67
2018-12-20T01:46:47.893Z,60.43
2018-12-20T01:49:16.147Z,55.30
2018-12-20T01:51:44.655Z,54.33
2018-12-20T01:54:12.936Z,61.27
2018-12-20T01:56:41.392Z,69.10
2018-12-20T01:59:09.822Z,71.93
2018-12-20T02:01:38.270Z,57.73
2018-12-20T02:04:06.800Z,64.40
2018-12-20T02:06:35.199Z,57.90
2018-12-20T02:09:05.902Z,56.90
2018-12-20T02:11:34.190Z,63.77
2018-12-20T02:14:02.501Z,68.43
2018-12-20T02:16:30.712Z,55.33
2018-12-20T02:18:58.961Z,60.70
2018-12-20T02:21:27.164Z,59.43
2018-12-20T02:23:55.500Z,60.03
2018-12-20T02:26:24.034Z,55.13
2018-12-20T02:28:52.346Z,69.67
2018-12-20T02:31:20.656Z,69.93
2018-12-20T02:33:48.971Z,59.90
2018-12-20T02:36:17.358Z,69.03
2018-12-20T02:38:46.315Z,55.83
2018-12-20T02:41:15.253Z,51.63
2018-12-20T02:43:43.440Z,56.73
2018-12-20T02:46:11.648Z,53.07
2018-12-20T02:48:39.906Z,50.17
2018-12-20T02:51:08.065Z,50.97
2018-12-20T02:53:36.253Z,53.53
2018-12-20T02:56:04.615Z,48.77
2018-12-20T02:58:32.901Z,63.93
2018-12-20T03:01:01.004Z,62.77
2018-12-20T03:03:29.088Z,61.57
2018-12-20T03:05:57.910Z,55.43
2018-12-20T03:08:26.162Z,54.60
2018-12-20T03:10:54.451Z,64.03
2018-12-20T03:13:22.554Z,62.00
2018-12-20T03:15:50.750Z,78.47
2018-12-20T03:18:19.131Z,59.37
2018-12-20T03:20:47.554Z,73.20
2018-12-20T03:23:15.763Z,59.57
2018-12-20T03:25:43.945Z,73.73
2018-12-20T03:28:12.188Z,62.20
2018-12-20T03:30:40.522Z,75.57
2018-12-20T03:33:10.490Z,59.10
2018-12-20T03:35:39.011Z,80.97
2018-12-20T03:38:07.204Z,68.30
2018-12-20T03:40:35.715Z,64.97
2018-12-20T03:43:04.232Z,64.73
2018-12-20T03:45:32.576Z,65.97
2018-12-20T03:48:00.989Z,67.23
2018-12-20T03:50:29.422Z,76.33
2018-12-20T03:52:57.801Z,71.13
2018-12-20T03:55:26.029Z,73.47
2018-12-20T03:57:54.222Z,70.87
2018-12-20T04:00:22.452Z,66.63
2018-12-20T04:02:50.687Z,68.00
2018-12-20T04:05:19.160Z,64.30
2018-12-20T04:07:47.384Z,69.30
2018-12-20T04:10:16.410Z,64.30
2018-12-20T04:12:44.826Z,66.93
2018-12-20T04:15:13.436Z,76.83
2018-12-20T04:17:41.618Z,77.73
2018-12-20T04:20:10.302Z,62.70
2018-12-20T04:22:38.671Z,72.77
2018-12-20T04:25:07.030Z,64.03
2018-12-20T04:27:38.626Z,90.23
2018-12-20T04:30:07.342Z,88.80
2018-12-20T04:32:36.333Z,75.07
2018-12-20T04:35:05.555Z,68.57
2018-12-20T04:37:34.068Z,60.77
2018-12-20T04:40:02.455Z,75.10
2018-12-20T04:42:30.829Z,64.07
2018-12-20T04:44:59.106Z,48.57
2018-12-20T04:47:28.111Z,48.77
2018-12-20T04:49:56.762Z,46.67
2018-12-20T04:52:25.685Z,46.50
2018-12-20T04:54:53.826Z,46.43
2018-12-20T04:57:22.905Z,56.20
2018-12-20T04:59:52.905Z,51.07
2018-12-20T05:02:22.057Z,63.53
2018-12-20T05:04:50.485Z,51.47
2018-12-20T05:07:18.758Z,58.20
2018-12-20T05:09:47.240Z,56.13
2018-12-20T05:12:15.475Z,55.63
2018-12-20T05:14:43.809Z,61.83
2018-12-20T05:17:12.367Z,57.83
2018-12-20T05:19:40.852Z,57.50
2018-12-20T05:22:09.258Z,45.07
2018-12-20T05:24:37.528Z,71.53
2018-12-20T05:27:05.794Z,87.77
2018-12-20T05:29:34.249Z,72.87
2018-12-20T05:32:02.506Z,65.77
2018-12-20T05:34:30.810Z,58.30
2018-12-20T05:37:01.942Z,69.47
2018-12-20T05:39:30.323Z,67.37
2018-12-20T05:41:58.622Z,64.10
2018-12-20T05:44:27.850Z,72.27
2018-12-20T05:46:56.083Z,65.37
2018-12-20T05:49:25.770Z,64.50
2018-12-20T05:51:54.561Z,68.50
2018-12-20T05:54:24.829Z,66.30
2018-12-20T05:56:58.688Z,62.13
2018-12-20T05:59:28.596Z,72.90
2018-12-20T06:01:57.699Z,56.70
2018-12-20T06:04:26.225Z,69.33
2018-12-20T06:06:55.016Z,64.70
2018-12-20T06:09:24.019Z,68.90
2018-12-20T06:14:36.901Z,67.17
2018-12-20T06:17:07.941Z,57.13
2018-12-20T06:19:36.413Z,51.30
2018-12-20T06:22:04.737Z,52.53
2018-12-20T06:24:34.959Z,51.53
2018-12-20T06:27:07.948Z,57.93
2018-12-20T06:29:38.825Z,46.07
2018-12-20T06:32:07.888Z,57.07
2018-12-20T06:34:36.045Z,57.57
2018-12-20T06:37:04.202Z,56.07
2018-12-20T06:39:33.324Z,54.90
2018-12-20T06:42:01.644Z,59.60
2018-12-20T06:44:29.778Z,57.10
2018-12-20T06:46:57.885Z,58.30
2018-12-20T06:49:34.773Z,45.00
2018-12-20T06:52:09.497Z,66.07
2018-12-20T06:54:42.357Z,60.57
2018-12-20T06:57:13.393Z,57.57
2018-12-20T06:59:45.690Z,52.20
2018-12-20T07:02:14.089Z,52.20
2018-12-20T07:04:42.669Z,52.53
2018-12-20T07:07:11.250Z,54.13
2018-12-20T07:09:39.582Z,48.00
2018-12-20T07:12:07.805Z,52.60
2018-12-20T07:14:42.848Z,67.13
2018-12-20T07:17:14.319Z,53.70
2018-12-20T07:19:45.212Z,57.97
2018-12-20T07:22:13.626Z,48.50
2018-12-20T07:24:42.062Z,51.53
2018-12-20T07:27:10.492Z,50.83
2018-12-20T07:29:39.802Z,48.87
2018-12-20T07:32:08.198Z,38.23
2018-12-20T07:34:36.851Z,45.53
2018-12-20T07:37:05.145Z,37.40
2018-12-20T07:39:33.452Z,40.37
2018-12-20T07:42:02.481Z,35.70
2018-12-20T07:44:34.079Z,26.43
2018-12-20T07:47:07.753Z,35.23
2018-12-20T07:49:35.988Z,32.80
2018-12-20T07:52:07.086Z,32.37
2018-12-20T07:54:35.476Z,34.20
2018-12-20T07:57:06.625Z,36.80
2018-12-20T07:59:37.200Z,44.40
2018-12-20T08:02:06.164Z,40.70
2018-12-20T08:04:35.173Z,40.33
2018-12-20T08:07:03.487Z,41.80
2018-12-20T08:09:31.845Z,44.07
2018-12-20T08:12:01.305Z,49.37
2018-12-20T08:14:29.479Z,55.33
2018-12-20T08:16:58.009Z,47.90
2018-12-20T08:19:26.157Z,49.67
2018-12-20T08:21:56.507Z,58.93
2018-12-20T08:24:24.606Z,47.63
2018-12-20T08:26:57.232Z,64.43
2018-12-20T08:29:26.128Z,54.10
2018-12-20T08:31:55.336Z,58.77
2018-12-20T08:34:25.475Z,52.27
2018-12-20T08:36:55.133Z,53.90
2018-12-20T08:39:23.351Z,55.30
2018-12-20T08:41:52.060Z,51.63
2018-12-20T08:44:22.611Z,62.10
2018-12-20T08:46:54.467Z,60.33
2018-12-20T08:49:21.213Z,59.27
2018-12-20T08:51:50.373Z,63.70
2018-12-20T08:54:18.522Z,60.70
2018-12-20T08:56:46.670Z,63.03
2018-12-20T08:59:15.996Z,61.00
2018-12-20T09:01:46.436Z,61.53
2018-12-20T09:04:16.251Z,57.00
2018-12-20T09:06:44.713Z,63.10
2018-12-20T09:09:14.894Z,72.60
2018-12-20T09:11:46.874Z,70.97
2018-12-20T09:14:17.432Z,72.67
2018-12-20T09:16:50.004Z,67.83
2018-12-20T09:19:19.120Z,61.40
2018-12-20T09:21:50.987Z,64.63
2018-12-20T09:24:23.012Z,60.63
2018-12-20T09:26:54.660Z,54.13
2018-12-20T09:29:33.170Z,57.47
2018-12-20T09:32:06.277Z,63.10
2018-12-20T09:34:34.720Z,60.63
2018-12-20T09:37:03.719Z,58.53
2018-12-20T09:39:34.941Z,56.97
2018-12-20T09:42:03.157Z,60.87
2018-12-20T09:47:18.870Z,63.37
2018-12-20T09:49:48.833Z,79.60
2018-12-20T09:52:24.906Z,66.03
2018-12-20T09:54:57.589Z,69.63
2018-12-20T09:57:30.334Z,73.20
2018-12-20T09:59:58.770Z,74.03
2018-12-20T10:02:26.891Z,69.23
2018-12-20T10:04:55.287Z,64.73
2018-12-20T10:07:27.814Z,71.67
2018-12-20T10:09:56.456Z,63.37
2018-12-20T10:12:24.712Z,89.63
2018-12-20T10:14:53.076Z,75.37
2018-12-20T10:17:23.574Z,80.53
2018-12-20T10:19:52.787Z,78.90
2018-12-20T10:22:21.616Z,76.37
2018-12-20T10:24:52.212Z,68.03
2018-12-20T10:27:20.435Z,76.33
2018-12-20T10:29:52.414Z,80.47
2018-12-20T10:32:20.747Z,82.53
2018-12-20T10:34:48.939Z,78.50
2018-12-20T10:37:17.252Z,84.30
2018-12-20T10:39:46.296Z,79.17
2018-12-20T10:42:14.451Z,74.97
2018-12-20T10:44:43.129Z,82.67
2018-12-20T10:47:17.382Z,79.17
2018-12-20T10:49:45.565Z,88.37
2018-12-20T10:52:13.720Z,87.50
2018-12-20T10:54:42.637Z,93.40
2018-12-20T10:57:13.398Z,99.10
2018-12-20T10:59:42.862Z,90.80
2018-12-20T11:02:16.632Z,98.50
2018-12-20T11:04:50.179Z,90.57
2018-12-20T11:07:24.803Z,75.83
2018-12-20T11:09:58.814Z,95.20
2018-12-20T11:12:32.243Z,95.53
2018-12-20T11:15:00.435Z,102.03
2018-12-20T11:17:37.050Z,88.20
2018-12-20T11:20:01.038Z,105.97
2018-12-20T11:22:29.760Z,109.43
2018-12-20T11:24:59.165Z,98.00
2018-12-20T11:27:27.551Z,83.97
2018-12-20T11:29:56.040Z,102.80
2018-12-20T11:32:24.982Z,96.33
2018-12-20T11:34:54.043Z,104.63
2018-12-20T11:37:22.424Z,96.63
2018-12-20T11:39:59.206Z,95.90
2018-12-20T11:42:23.468Z,99.53
2018-12-20T11:44:52.300Z,105.47
2018-12-20T11:47:26.023Z,107.57
2018-12-20T11:49:54.268Z,90.03
2018-12-20T11:52:22.595Z,99.53
2018-12-20T11:54:54.128Z,109.63
2018-12-20T11:57:22.403Z,107.33
2018-12-20T11:59:52.083Z,106.37
2018-12-20T12:02:24.674Z,106.93
2018-12-20T12:04:51.387Z,116.00
2018-12-20T12:07:19.710Z,103.50
2018-12-20T12:09:48.468Z,95.13
2018-12-20T12:12:16.658Z,96.80
2018-12-20T12:14:44.990Z,88.47
2018-12-20T12:17:13.191Z,78.37
2018-12-20T12:19:41.432Z,108.03
2018-12-20T12:22:09.560Z,107.37
2018-12-20T12:24:37.787Z,107.80
2018-12-20T12:27:06.424Z,94.60
2018-12-20T12:29:34.949Z,87.53
2018-12-20T12:32:03.203Z,98.10
2018-12-20T12:34:31.512Z,88.00
2018-12-20T12:36:59.674Z,108.07
2018-12-20T12:39:28.098Z,99.43
2018-12-20T12:41:56.212Z,111.00
2018-12-20T12:44:24.376Z,88.80
2018-12-20T12:46:53.029Z,97.40
2018-12-20T12:49:24.070Z,100.10
2018-12-20T12:51:53.219Z,95.93
2018-12-20T12:54:21.969Z,108.57
2018-12-20T12:56:50.729Z,89.97
2018-12-20T12:59:19.115Z,92.40
2018-12-20T13:01:48.016Z,100.77
2018-12-20T13:04:16.265Z,91.67
2018-12-20T13:06:44.998Z,91.03
2018-12-20T13:09:13.145Z,89.87
2018-12-20T13:11:41.320Z,93.20
2018-12-20T13:14:09.611Z,75.20
2018-12-20T13:16:38.707Z,89.20
2018-12-20T13:19:07.369Z,85.47
2018-12-20T13:21:36.051Z,91.83
2018-12-20T13:24:04.659Z,82.23
2018-12-20T13:26:32.898Z,97.90
2018-12-20T13:29:01.014Z,94.77
2018-12-20T13:31:29.224Z,95.73
2018-12-20T13:33:57.331Z,105.33
2018-12-20T13:36:25.456Z,99.00
2018-12-20T13:38:54.232Z,113.47
2018-12-20T13:41:22.670Z,103.37
2018-12-20T13:43:50.836Z,111.93
2018-12-20T13:46:19.036Z,115.57
2018-12-20T13:48:47.157Z,123.93
2018-12-20T13:51:15.291Z,114.07
2018-12-20T13:53:43.480Z,122.30
2018-12-20T13:56:11.533Z,121.10
2018-12-20T13:58:39.805Z,111.10
2018-12-20T14:01:08.065Z,125.60
2018-12-20T14:03:36.617Z,114.70
2018-12-20T14:06:06.586Z,114.33
2018-12-20T14:08:34.809Z,103.43
2018-12-20T14:11:03.275Z,110.43
2018-12-20T14:13:32.162Z,103.03
2018-12-20T14:16:00.730Z,107.03
2018-12-20T14:18:31.174Z,103.00
2018-12-20T14:21:00.589Z,94.03
2018-12-20T14:23:29.284Z,97.37
2018-12-20T14:25:58.607Z,100.87
2018-12-20T14:28:27.293Z,92.87
2018-12-20T14:30:55.604Z,75.30
2018-12-20T14:33:23.827Z,86.13
2018-12-20T14:38:35.667Z,105.10
2018-12-20T14:41:03.937Z,106.90
2018-12-20T14:43:32.351Z,125.17
2018-12-20T14:46:00.535Z,128.13
2018-12-20T14:48:30.150Z,101.87
2018-12-20T14:50:59.756Z,106.40
2018-12-20T14:53:28.843Z,89.30
2018-12-20T14:55:57.527Z,113.17
2018-12-20T14:58:25.850Z,114.13
2018-12-20T15:00:55.555Z,115.40
2018-12-20T15:03:24.730Z,109.57
2018-12-20T15:05:54.181Z,120.07
2018-12-20T15:08:23.050Z,122.17
2018-12-20T15:10:51.812Z,118.97
2018-12-20T15:13:20.498Z,108.63
2018-12-20T15:15:49.361Z,125.47
2018-12-20T15:18:18.241Z,114.60
2018-12-20T15:20:46.973Z,128.80
2018-12-20T15:23:16.067Z,123.43
2018-12-20T15:25:46.063Z,119.50
2018-12-20T15:28:15.138Z,121.63
2018-12-20T15:30:44.902Z,122.97
2018-12-20T15:33:14.317Z,115.37
2018-12-20T15:35:43.268Z,133.37
2018-12-20T15:38:12.270Z,134.57
2018-12-20T15:40:42.182Z,139.03
2018-12-20T15:43:10.961Z,122.37
2018-12-20T15:45:42.718Z,151.70
2018-12-20T15:48:11.464Z,139.37
2018-12-20T15:50:39.887Z,133.17
2018-12-20T15:53:08.696Z,119.77
2018-12-20T15:55:37.306Z,141.63
2018-12-20T15:58:06.651Z,143.33
2018-12-20T16:00:35.280Z,141.30
2018-12-20T16:03:03.867Z,146.77
2018-12-20T16:05:34.563Z,145.07
2018-12-20T16:08:08.086Z,137.83
2018-12-20T16:10:36.830Z,142.07
2018-12-20T16:13:05.254Z,155.17
2018-12-20T16:15:33.448Z,142.57
2018-12-20T16:18:02.380Z,155.13
2018-12-20T16:20:30.900Z,156.77
2018-12-20T16:23:00.360Z,181.30
2018-12-20T16:25:29.421Z,153.73
2018-12-20T16:27:57.850Z,158.87
2018-12-20T16:30:27.851Z,165.70
2018-12-20T16:32:56.241Z,133.10
2018-12-20T16:35:24.485Z,152.50
2018-12-20T16:37:52.710Z,138.60
2018-12-20T16:40:21.633Z,158.03
2018-12-20T16:42:50.090Z,150.10
2018-12-20T16:45:18.446Z,176.30
2018-12-20T16:47:47.296Z,160.53
2018-12-20T16:50:16.460Z,141.67
2018-12-20T16:52:44.676Z,167.47
2018-12-20T16:55:13.343Z,148.57
2018-12-20T16:57:41.970Z,177.97
2018-12-20T17:00:13.903Z,150.70
2018-12-20T17:02:42.579Z,133.73
2018-12-20T17:05:10.879Z,202.03
2018-12-20T17:07:39.470Z,153.77
2018-12-20T17:10:08.533Z,153.87
2018-12-20T17:12:36.894Z,153.73
2018-12-20T17:15:07.064Z,147.77
2018-12-20T17:17:35.384Z,162.87
2018-12-20T17:20:04.944Z,168.70
2018-12-20T17:22:33.374Z,167.53
2018-12-20T17:25:01.456Z,177.20
2018-12-20T17:27:30.233Z,157.10
2018-12-20T17:29:58.513Z,119.40
2018-12-20T17:32:27.284Z,181.33
2018-12-20T17:34:56.000Z,151.53
2018-12-20T17:37:24.773Z,152.93
2018-12-20T17:39:53.378Z,140.47
2018-12-20T17:42:21.844Z,132.47
2018-12-20T17:44:50.147Z,142.60
2018-12-20T17:47:20.144Z,156.27
2018-12-20T17:49:48.701Z,166.37
2018-12-20T17:52:17.064Z,190.53
2018-12-20T17:54:49.316Z,169.20
2018-12-20T17:57:17.573Z,183.13
2018-12-20T17:59:45.788Z,164.93
2018-12-20T18:02:14.618Z,163.60
2018-12-20T18:04:43.083Z,175.67
2018-12-20T18:07:12.108Z,176.27
2018-12-20T18:09:41.144Z,194.63
2018-12-20T18:12:10.412Z,181.23
2018-12-20T18:14:41.449Z,195.40
2018-12-20T18:17:11.043Z,205.33
2018-12-20T18:19:39.646Z,172.83
2018-12-20T18:22:09.789Z,166.90
2018-12-20T18:24:39.889Z,229.17
2018-12-20T18:27:10.095Z,202.33
2018-12-20T18:29:38.818Z,213.17
2018-12-20T18:32:08.490Z,219.30
2018-12-20T18:34:37.403Z,205.80
2018-12-20T18:37:06.498Z,205.20
2018-12-20T18:39:35.927Z,203.23
2018-12-20T18:42:07.768Z,205.53
2018-12-20T18:44:36.086Z,213.20
2018-12-20T18:47:04.490Z,246.53
2018-12-20T18:49:33.131Z,254.30
2018-12-20T18:52:01.359Z,268.90
2018-12-20T18:54:29.661Z,235.03
2018-12-20T18:56:57.878Z,212.23
2018-12-20T18:59:26.718Z,207.10
2018-12-20T19:01:55.188Z,237.20
2018-12-20T19:04:23.375Z,173.73
2018-12-20T19:06:51.728Z,270.73
2018-12-20T19:09:21.536Z,241.80
2018-12-20T19:11:50.908Z,203.47
2018-12-20T19:14:19.550Z,203.80
2018-12-20T19:16:49.585Z,204.90
2018-12-20T19:19:18.495Z,201.97
2018-12-20T19:21:48.163Z,187.37
2018-12-20T19:24:18.441Z,206.60
2018-12-20T19:26:48.394Z,141.73
2018-12-20T19:29:19.394Z,166.07
2018-12-20T19:31:50.374Z,184.70
2018-12-20T19:34:18.874Z,203.37
2018-12-20T19:36:48.140Z,170.37
2018-12-20T19:39:18.264Z,195.13
2018-12-20T19:41:47.525Z,139.07
2018-12-20T19:44:15.855Z,168.93
2018-12-20T19:46:44.152Z,159.20
2018-12-20T19:49:12.360Z,134.80
2018-12-20T19:51:40.571Z,134.33
2018-12-20T19:54:08.737Z,148.77
2018-12-20T19:56:37.678Z,140.43
2018-12-20T19:59:06.286Z,164.00
2018-12-20T20:01:34.872Z,144.30
2018-12-20T20:04:03.427Z,127.97
2018-12-20T20:06:31.597Z,116.07
2018-12-20T20:09:00.071Z,107.70
2018-12-20T20:11:29.590Z,128.60
2018-12-20T20:13:58.877Z,92.03
2018-12-20T20:16:27.284Z,136.80
2018-12-20T20:18:56.669Z,114.17
2018-12-20T20:21:24.864Z,131.13
2018-12-20T20:23:53.598Z,108.60
2018-12-20T20:26:23.055Z,115.03
2018-12-20T20:28:51.262Z,167.07
2018-12-20T20:31:19.582Z,124.17
2018-12-20T20:33:48.395Z,152.50
2018-12-20T20:36:16.591Z,159.90
2018-12-20T20:38:44.716Z,167.57
2018-12-20T20:41:14.487Z,156.07
2018-12-20T20:43:43.087Z,118.33
2018-12-20T20:46:13.003Z,152.87
2018-12-20T20:48:41.590Z,126.67
2018-12-20T20:51:10.128Z,166.43
2018-12-20T20:53:38.393Z,138.30
2018-12-20T20:56:06.630Z,151.53
2018-12-20T20:58:35.100Z,112.13
2018-12-20T21:01:04.623Z,123.17
2018-12-20T21:03:34.009Z,159.53
2018-12-20T21:06:03.343Z,138.30
2018-12-20T21:08:32.466Z,142.53
2018-12-20T21:11:00.778Z,114.50
2018-12-20T21:13:29.098Z,113.87
2018-12-20T21:15:58.134Z,139.33
2018-12-20T21:18:26.731Z,146.70
2018-12-20T21:20:55.053Z,126.93
2018-12-20T21:23:23.201Z,144.07
2018-12-20T21:25:51.475Z,140.27
2018-12-20T21:28:19.981Z,134.63
2018-12-20T21:30:48.352Z,179.13
2018-12-20T21:33:20.396Z,147.70
2018-12-20T21:35:48.628Z,203.23
2018-12-20T21:38:17.105Z,128.43
2018-12-20T21:40:46.110Z,116.30
2018-12-20T21:43:14.889Z,160.37
2018-12-20T21:45:47.941Z,119.00
2018-12-20T21:48:16.553Z,127.33
2018-12-20T21:50:46.054Z,139.23
2018-12-20T21:53:21.019Z,191.70
2018-12-20T21:55:51.099Z,141.13
2018-12-20T21:58:24.670Z,200.10
2018-12-20T22:00:53.474Z,148.47
2018-12-20T22:03:23.116Z,135.27
2018-12-20T22:05:51.344Z,127.30
2018-12-20T22:08:19.972Z,229.60
2018-12-20T22:10:48.206Z,189.77
2018-12-20T22:13:17.732Z,158.57
2018-12-20T22:15:45.883Z,165.20
2018-12-20T22:18:14.013Z,138.30
2018-12-20T22:20:47.301Z,146.03
2018-12-20T22:23:12.431Z,178.77
2018-12-20T22:25:40.609Z,170.77
2018-12-20T22:28:08.720Z,135.47
2018-12-20T22:30:37.403Z,162.77
2018-12-20T22:33:05.573Z,118.23
2018-12-20T22:35:33.802Z,144.00
2018-12-20T22:38:01.917Z,175.27
2018-12-20T22:40:30.064Z,154.77
2018-12-20T22:42:58.209Z,163.63
2018-12-20T22:45:26.489Z,132.67
2018-12-20T22:47:54.754Z,189.50
2018-12-20T22:50:22.895Z,159.27
2018-12-20T22:52:51.039Z,126.93
2018-12-20T22:55:19.258Z,142.83
2018-12-20T22:57:47.506Z,137.63
2018-12-20T23:00:16.964Z,126.43
2018-12-20T23:02:45.226Z,134.57
2018-12-20T23:05:13.421Z,133.70
2018-12-20T23:07:41.592Z,130.83
2018-12-20T23:10:09.917Z,143.73
2018-12-20T23:12:38.157Z,127.90
2018-12-20T23:15:06.481Z,133.03
2018-12-20T23:17:34.668Z,118.47
2018-12-20T23:20:03.000Z,139.70
2018-12-20T23:22:31.159Z,143.30
2018-12-20T23:24:59.411Z,128.43
2018-12-20T23:27:27.617Z,131.50
2018-12-20T23:29:55.776Z,117.70
2018-12-20T23:32:24.033Z,142.50
2018-12-20T23:34:52.203Z,118.97
2018-12-20T23:37:20.411Z,88.70
2018-12-20T23:39:48.591Z,118.20
2018-12-20T23:42:16.928Z,120.40
2018-12-20T23:44:45.282Z,118.80
2018-12-20T23:47:13.564Z,142.53
2018-12-20T23:49:41.709Z,94.03
2018-12-20T23:52:09.866Z,139.87
2018-12-20T23:54:38.023Z,156.10
2018-12-20T23:57:06.236Z,136.40
2018-12-20T23:59:34.467Z,130.13
